Time;durP1;ratioP1;P1;durP2;ratioP2;P2;SDS_P1;SDS_P2;PMS_P1;PMS_P2;Temp;Humidity;BMP_temperature;BMP_pressure;BME280_temperature;BME280_humidity;BME280_pressure;Samples;Min_cycle;Max_cycle;Signal;HPM_P1;HPM_P2
2022/01/28 00:01:02;;;;;;;0.00;0.00;;;;;;;0.23;58.78;99503.13;5094201;28;20079;-75
2022/01/28 00:03:29;;;;;;;0.00;0.00;;;;;;;0.27;58.80;99512.25;5093875;28;20031;-75
2022/01/28 00:05:55;;;;;;;0.00;0.00;;;;;;;0.27;58.61;99520.97;5092863;28;20031;-74
2022/01/28 00:08:21;;;;;;;0.00;0.00;;;;;;;0.24;58.57;99520.53;5094373;28;20344;-73
2022/01/28 00:10:46;;;;;;;0.00;0.00;;;;;;;0.21;58.82;99518.28;5092759;28;20032;-74
2022/01/28 00:13:30;;;;;;;0.00;0.00;;;;;;;0.19;58.78;99515.06;5093733;28;20039;-75
2022/01/28 00:39:38;;;;;;;0.00;0.00;;;;;;;-0.07;58.71;99483.19;5093474;28;20036;-75
2022/01/28 00:42:04;;;;;;;0.00;0.00;;;;;;;-0.06;59.38;99476.94;5092951;28;20023;-75
2022/01/28 00:44:29;;;;;;;0.00;0.00;;;;;;;-0.09;59.22;99471.25;5092358;28;20016;-76
2022/01/28 00:46:55;;;;;;;0.00;0.00;;;;;;;-0.11;59.35;99466.19;5093436;28;20024;-74
2022/01/28 00:49:20;;;;;;;0.00;0.00;;;;;;;-0.12;59.32;99469.81;5091692;28;20026;-74
2022/01/28 00:51:46;;;;;;;1.55;1.45;;;;;;;-0.12;58.96;99466.38;5109324;28;20035;-73
2022/01/28 00:54:11;;;;;;;0.00;0.00;;;;;;;-0.19;59.40;99451.38;5111918;28;20047;-75
2022/01/28 00:56:37;;;;;;;0.00;0.00;;;;;;;-0.20;58.98;99444.50;5113566;28;20467;-75
2022/01/28 00:59:02;;;;;;;0.00;0.00;;;;;;;-0.19;59.27;99447.94;5113082;28;20046;-74
2022/01/28 01:01:31;;;;;;;0.00;0.00;;;;;;;-0.24;59.27;99453.78;5102456;28;20510;-73
2022/01/28 01:03:58;;;;;;;0.00;0.00;;;;;;;-0.25;59.43;99452.16;5094315;28;20032;-74
2022/01/28 01:06:23;;;;;;;0.00;0.00;;;;;;;-0.22;59.41;99450.97;5091892;28;20093;-75
2022/01/28 01:08:49;;;;;;;0.00;0.00;;;;;;;-0.27;59.12;99435.78;5113378;28;20020;-75
2022/01/28 01:11:17;;;;;;;0.00;0.00;;;;;;;-0.38;59.24;99420.56;5113076;28;20023;-76
2022/01/28 01:13:43;;;;;;;;;;;;;;;-0.27;59.20;99443.69;5112288;28;20540;-75
2022/01/28 01:16:12;;;;;;;0.00;0.00;;;;;;;-0.32;59.34;99440.81;5109248;28;19916;-76
2022/01/28 01:18:48;;;;;;;0.00;0.00;;;;;;;-0.30;59.39;99440.63;5091700;28;20479;-77
2022/01/28 01:21:20;;;;;;;0.00;0.00;;;;;;;-0.31;58.88;99437.16;5095605;28;20050;-77
2022/01/28 01:23:56;;;;;;;0.00;0.00;;;;;;;-0.34;58.81;99445.47;5111783;28;20027;-76
2022/01/28 01:26:31;;;;;;;0.00;0.00;;;;;;;-0.47;58.76;99419.91;5112792;28;20023;-73
2022/01/28 01:28:56;;;;;;;0.00;0.00;;;;;;;-0.36;59.22;99435.13;5111311;28;20019;-75
2022/01/28 01:31:22;;;;;;;0.00;0.00;;;;;;;-0.38;58.59;99425.81;5109537;28;20088;-75
2022/01/28 01:33:54;;;;;;;0.00;0.00;;;;;;;-0.36;58.40;99423.81;5092484;28;20073;-74
2022/01/28 01:36:21;;;;;;;0.00;0.00;;;;;;;-0.35;58.51;99418.34;5091131;28;20031;-76
2022/01/28 01:38:47;;;;;;;0.00;0.00;;;;;;;-0.33;58.32;99408.47;5092406;28;20065;-76
2022/01/28 01:41:19;;;;;;;0.00;0.00;;;;;;;-0.33;58.23;99402.38;5090755;28;20477;-77
2022/01/28 01:54:15;;;;;;;0.00;0.00;;;;;;;-0.29;58.53;99392.28;5092020;28;20104;-73
2022/01/28 01:56:42;;;;;;;0.98;0.95;;;;;;;-0.31;58.08;99383.81;5090683;28;20028;-75
2022/01/28 01:59:08;;;;;;;0.00;0.00;;;;;;;-0.27;57.96;99391.13;5090169;28;20031;-75
2022/01/28 02:01:35;;;;;;;0.00;0.00;;;;;;;-0.31;57.76;99373.28;5093332;28;20407;-80
2022/01/28 02:04:00;;;;;;;0.00;0.00;;;;;;;-0.33;57.77;99369.03;5090200;28;20066;-79
2022/01/28 02:06:25;;;;;;;0.10;0.10;;;;;;;-0.27;58.16;99372.72;5090581;28;20032;-78
2022/01/28 02:08:51;;;;;;;0.00;0.00;;;;;;;-0.38;58.23;99355.69;5110358;28;20068;-78
2022/01/28 02:11:17;;;;;;;0.80;0.80;;;;;;;-0.39;58.51;99361.13;5110529;28;20055;-78
2022/01/28 02:13:48;;;;;;;0.00;0.00;;;;;;;-0.41;58.52;99360.53;5112053;28;20039;-79
2022/01/28 02:16:13;;;;;;;0.00;0.00;;;;;;;-0.41;58.37;99363.94;5110519;28;20039;-77
2022/01/28 02:18:39;;;;;;;0.00;0.00;;;;;;;-0.45;58.22;99357.47;5093693;28;20088;-74
2022/01/28 02:21:07;;;;;;;0.00;0.00;;;;;;;-0.53;58.11;99332.16;5091086;28;20028;-75
2022/01/28 02:23:34;;;;;;;0.00;0.00;;;;;;;-0.47;58.23;99348.97;5090532;28;20414;-76
2022/01/28 02:26:02;;;;;;;0.00;0.00;;;;;;;-0.41;57.99;99347.38;5090125;28;20085;-80
2022/01/28 02:28:31;;;;;;;0.00;0.00;;;;;;;-0.53;57.54;99328.75;5090195;28;20090;-74
2022/01/28 02:30:56;;;;;;;0.00;0.00;;;;;;;-0.50;57.66;99320.44;5090168;28;20035;-74
2022/01/28 02:33:24;;;;;;;0.00;0.00;;;;;;;-0.38;57.54;99342.53;5091415;28;20024;-74
2022/01/28 02:35:51;;;;;;;0.00;0.00;;;;;;;-0.36;57.72;99326.56;5101089;28;20031;-74
2022/01/28 02:38:24;;;;;;;0.00;0.00;;;;;;;-0.36;57.74;99337.88;5096414;28;20043;-75
2022/01/28 02:40:58;;;;;;;0.00;0.00;;;;;;;-0.37;57.71;99335.47;5091288;28;20171;-77
2022/01/28 02:46:06;;;;;;;0.00;0.00;;;;;;;-0.43;57.57;99310.78;5091182;28;20020;-75
2022/01/28 02:48:33;;;;;;;0.00;0.00;;;;;;;-0.34;57.09;99324.56;5091385;28;20027;-74
2022/01/28 02:53:36;;;;;;;0.00;0.00;;;;;;;-0.36;57.67;99329.19;5090978;28;20036;-77
2022/01/28 02:56:10;;;;;;;0.00;0.00;;;;;;;-0.44;57.53;99309.19;5089685;28;20031;-75
2022/01/28 02:58:36;;;;;;;0.00;0.00;;;;;;;-0.38;57.05;99320.69;5091099;28;20024;-75
2022/01/28 03:01:01;;;;;;;0.00;0.00;;;;;;;-0.50;57.74;99302.06;5096701;28;20398;-76
2022/01/28 03:03:27;;;;;;;0.00;0.00;;;;;;;-0.41;57.69;99310.59;5109881;28;20038;-76
2022/01/28 03:05:53;;;;;;;0.00;0.00;;;;;;;-0.46;57.88;99298.03;5107857;28;20119;-75
2022/01/28 03:08:23;;;;;;;0.00;0.00;;;;;;;-0.52;57.95;99318.03;5097862;28;20074;-75
2022/01/28 03:13:34;;;;;;;0.00;0.00;;;;;;;-0.60;58.49;99317.38;5090743;28;20446;-76
2022/01/28 03:16:12;;;;;;;0.00;0.00;;;;;;;-0.62;58.60;99309.72;5089710;28;20090;-76
2022/01/28 03:18:51;;;;;;;0.00;0.00;;;;;;;-0.73;58.39;99316.34;5089641;28;20124;-76
2022/01/28 03:23:54;;;;;;;0.00;0.00;;;;;;;-0.90;59.18;99309.78;5111052;28;20398;-75
2022/01/28 03:26:20;;;;;;;0.05;0.05;;;;;;;-0.98;58.90;99295.00;5109633;28;20059;-77
2022/01/28 03:28:46;;;;;;;0.00;0.00;;;;;;;-0.95;59.06;99313.00;5109785;28;20031;-76
2022/01/28 03:31:11;;;;;;;0.00;0.00;;;;;;;-1.06;58.98;99308.28;5109589;28;20032;-76
2022/01/28 03:33:37;;;;;;;0.00;0.00;;;;;;;-1.13;59.25;99293.28;5109884;28;20380;-75
2022/01/28 03:36:07;;;;;;;0.00;0.00;;;;;;;-1.07;59.32;99310.09;5107703;28;20036;-77
2022/01/28 03:38:33;;;;;;;0.00;0.00;;;;;;;-1.12;59.62;99307.25;5105015;28;20093;-77
2022/01/28 03:40:58;;;;;;;0.00;0.00;;;;;;;-1.09;59.51;99313.91;5107530;28;20032;-78
2022/01/28 03:43:24;;;;;;;0.00;0.00;;;;;;;-1.13;59.30;99301.16;5089098;28;20036;-77
2022/01/28 03:45:49;;;;;;;0.00;0.00;;;;;;;-1.13;59.43;99309.03;5089347;28;20039;-78
2022/01/28 03:48:15;;;;;;;0.00;0.00;;;;;;;-1.18;59.26;99297.53;5089030;28;20457;-76
2022/01/28 03:50:41;;;;;;;0.00;0.00;;;;;;;-1.19;59.54;99309.81;5092206;28;20048;-76
2022/01/28 03:53:07;;;;;;;0.00;0.00;;;;;;;-1.31;60.44;99299.06;5092653;28;20062;-77
2022/01/28 03:55:34;;;;;;;0.00;0.00;;;;;;;-1.32;61.13;99304.47;5093124;28;20377;-76
2022/01/28 03:57:59;;;;;;;0.00;0.00;;;;;;;-1.37;61.35;99302.44;5108026;28;20042;-75
2022/01/28 04:00:29;;;;;;;0.13;0.13;;;;;;;-1.45;61.49;99271.91;5114175;28;20032;-76
2022/01/28 04:03:05;;;;;;;0.00;0.00;;;;;;;-1.34;61.36;99293.38;5112956;28;20027;-76
2022/01/28 04:13:27;;;;;;;0.00;0.00;;;;;;;-1.47;61.44;99294.09;5094448;28;20066;-78
2022/01/28 04:18:24;;;;;;;0.00;0.00;;;;;;;-1.48;62.80;99290.69;5093765;28;20028;-83
2022/01/28 04:20:50;;;;;;;0.00;0.00;;;;;;;-1.51;62.88;99277.13;5092422;28;20039;-78
2022/01/28 04:23:15;;;;;;;0.00;0.00;;;;;;;-1.48;63.33;99271.47;5112539;28;20395;-80
2022/01/28 04:25:41;;;;;;;0.20;0.20;;;;;;;-1.52;63.08;99265.81;5112600;28;20051;-80
2022/01/28 04:28:06;;;;;;;0.10;0.10;;;;;;;-1.48;63.08;99269.69;5101284;28;20443;-78
2022/01/28 04:30:32;;;;;;;0.30;0.30;;;;;;;-1.51;62.82;99256.94;5092365;28;20067;-77
2022/01/28 04:32:57;;;;;;;0.17;0.17;;;;;;;-1.62;62.60;99232.06;5092345;28;20024;-76
2022/01/28 04:35:23;;;;;;;0.00;0.00;;;;;;;-1.62;62.58;99233.88;5111229;28;20027;-78
2022/01/28 04:40:30;;;;;;;0.00;0.00;;;;;;;-1.61;62.78;99233.69;5093301;28;20063;-75
2022/01/28 04:43:07;;;;;;;0.00;0.00;;;;;;;-1.71;63.01;99225.34;5100343;28;20027;-77
2022/01/28 04:48:15;;;;;;;0.00;0.00;;;;;;;-1.64;62.94;99247.16;5113046;28;20069;-75
2022/01/28 05:14:42;;;;;;;0.00;0.00;;;;;;;-1.70;62.44;99226.94;5070541;28;20130;-76
2022/01/28 05:27:48;;;;;;;0.00;0.00;;;;;;;-1.71;61.92;99220.09;5099785;28;20043;-78
2022/01/28 05:30:13;;;;;;;0.00;0.00;;;;;;;-1.68;62.18;99232.03;5131434;27;20417;-82
2022/01/28 05:32:39;;;;;;;0.00;0.00;;;;;;;-1.78;62.18;99217.44;5109037;27;20047;-77
2022/01/28 05:35:05;;;;;;;0.00;0.00;;;;;;;-1.70;61.93;99223.53;5106518;28;20482;-75
2022/01/28 05:37:30;;;;;;;0.00;0.00;;;;;;;-1.68;62.48;99221.53;5097585;28;20031;-75
2022/01/28 05:39:56;;;;;;;0.00;0.00;;;;;;;-1.66;62.61;99222.13;5112672;28;20031;-75
2022/01/28 05:42:21;;;;;;;0.00;0.00;;;;;;;-1.62;62.59;99218.13;5110867;28;20035;-74
2022/01/28 05:44:47;;;;;;;0.00;0.00;;;;;;;-1.62;62.39;99213.69;5112798;28;20032;-75
2022/01/28 05:47:15;;;;;;;0.00;0.00;;;;;;;-1.63;62.36;99183.22;5112315;28;20403;-75
2022/01/28 05:49:42;;;;;;;0.00;0.00;;;;;;;-1.56;62.55;99187.69;5112463;28;20030;-75
2022/01/28 05:52:08;;;;;;;0.00;0.00;;;;;;;-1.47;63.14;99183.91;5110943;28;20038;-75
2022/01/28 05:54:34;;;;;;;0.00;0.00;;;;;;;-1.32;63.22;99204.78;5111973;28;20028;-75
2022/01/28 05:57:00;;;;;;;0.00;0.00;;;;;;;-1.28;62.89;99213.91;5112420;28;20444;-75
2022/01/28 05:59:25;;;;;;;0.00;0.00;;;;;;;-1.24;62.91;99215.13;5110990;28;20023;-75
2022/01/28 06:01:50;;;;;;;0.00;0.00;;;;;;;-1.16;62.50;99204.47;5110980;28;20398;-75
2022/01/28 06:04:16;;;;;;;0.00;0.00;;;;;;;-1.05;62.41;99210.16;5111889;28;20118;-75
2022/01/28 06:06:42;;;;;;;0.00;0.00;;;;;;;-0.93;62.29;99220.91;5110812;28;20026;-75
2022/01/28 06:09:08;;;;;;;0.00;0.00;;;;;;;-0.94;62.55;99208.78;5111775;28;20024;-74
2022/01/28 06:11:33;;;;;;;0.00;0.00;;;;;;;-0.84;61.58;99214.47;5110138;28;20102;-74
2022/01/28 06:13:59;;;;;;;0.00;0.00;;;;;;;-0.72;62.06;99223.41;5110453;28;20024;-74
2022/01/28 06:16:24;;;;;;;0.00;0.00;;;;;;;-0.62;61.21;99223.03;5111771;28;20035;-76
2022/01/28 06:18:49;;;;;;;0.00;0.00;;;;;;;-0.50;61.14;99217.97;5111673;28;20430;-76
2022/01/28 06:21:16;;;;;;;0.00;0.00;;;;;;;-0.37;60.44;99225.09;5110392;28;20050;-75
2022/01/28 06:23:42;;;;;;;0.00;0.00;;;;;;;-0.33;61.37;99213.16;5110614;28;20032;-75
2022/01/28 06:26:07;;;;;;;0.00;0.00;;;;;;;-0.20;61.18;99213.19;5110329;28;20068;-76
2022/01/28 06:28:32;;;;;;;0.93;0.93;;;;;;;-0.06;60.67;99221.91;5110401;28;20031;-76
2022/01/28 06:30:58;;;;;;;0.05;0.05;;;;;;;0.09;60.16;99226.94;5110464;28;20031;-76
2022/01/28 06:33:24;;;;;;;0.00;0.00;;;;;;;0.08;59.47;99201.66;5111316;28;20016;-75
2022/01/28 06:35:49;;;;;;;0.00;0.00;;;;;;;0.31;59.18;99208.31;5111722;28;20505;-75
2022/01/28 06:38:15;;;;;;;1.00;1.00;;;;;;;0.40;58.97;99209.69;5110163;28;20027;-75
2022/01/28 06:40:41;;;;;;;1.92;1.55;;;;;;;0.39;58.90;99194.13;5110423;28;20028;-76
2022/01/28 06:43:09;;;;;;;0.00;0.00;;;;;;;0.51;58.54;99204.84;5110128;28;20027;-76
2022/01/28 06:45:35;;;;;;;0.65;0.65;;;;;;;0.59;58.36;99208.06;5110164;28;20118;-74
2022/01/28 06:48:00;;;;;;;0.20;0.20;;;;;;;0.66;57.66;99209.84;5110179;28;20161;-75
2022/01/28 06:50:26;;;;;;;0.00;0.00;;;;;;;0.71;57.81;99208.22;5111316;28;20470;-75
2022/01/28 06:52:51;;;;;;;1.75;1.00;;;;;;;0.69;57.85;99202.34;5111678;28;20425;-76
2022/01/28 06:55:16;;;;;;;0.25;0.25;;;;;;;0.88;57.54;99231.47;5110020;28;20034;-74
2022/01/28 06:57:43;;;;;;;0.00;0.00;;;;;;;0.67;57.30;99190.44;5110101;28;20030;-74
2022/01/28 07:00:10;;;;;;;0.00;0.00;;;;;;;0.99;57.45;99222.09;5109828;28;20047;-74
2022/01/28 07:02:36;;;;;;;0.00;0.00;;;;;;;1.19;56.84;99224.66;5111426;28;20027;-76
2022/01/28 07:05:02;;;;;;;0.00;0.00;;;;;;;1.30;55.90;99225.84;5110885;28;20472;-76
2022/01/28 07:07:27;;;;;;;0.00;0.00;;;;;;;1.42;56.00;99218.88;5109989;28;20020;-76
2022/01/28 07:09:53;;;;;;;0.00;0.00;;;;;;;1.62;56.29;99231.13;5111209;28;20020;-75
2022/01/28 07:12:20;;;;;;;1.75;1.65;;;;;;;1.76;55.48;99228.19;5110647;28;20031;-75
2022/01/28 07:14:46;;;;;;;0.00;0.00;;;;;;;1.93;55.52;99235.59;5111050;28;20099;-75
2022/01/28 07:17:11;;;;;;;0.00;0.00;;;;;;;2.11;54.62;99234.03;5109715;28;20043;-74
2022/01/28 07:19:37;;;;;;;0.00;0.00;;;;;;;2.36;54.53;99228.75;5109900;28;20543;-74
2022/01/28 07:22:03;;;;;;;0.20;0.20;;;;;;;2.61;53.95;99235.81;5109705;28;20034;-74
2022/01/28 07:24:29;;;;;;;0.13;0.13;;;;;;;2.80;53.52;99237.44;5113875;28;20433;-75
2022/01/28 07:26:54;;;;;;;0.00;0.00;;;;;;;2.99;52.52;99226.84;5113972;28;20390;-74
2022/01/28 07:29:22;;;;;;;0.00;0.00;;;;;;;3.08;51.91;99209.66;5114967;28;20394;-75
2022/01/28 07:31:47;;;;;;;0.00;0.00;;;;;;;3.27;51.32;99221.03;5115470;28;20494;-75
2022/01/28 07:34:13;;;;;;;0.00;0.00;;;;;;;3.40;51.38;99219.25;5113646;28;20024;-75
2022/01/28 07:36:39;;;;;;;0.00;0.00;;;;;;;3.48;51.40;99211.00;5115150;28;20034;-75
2022/01/28 07:39:07;;;;;;;1.55;1.08;;;;;;;3.56;51.37;99207.22;5114631;28;20027;-75
2022/01/28 07:41:34;;;;;;;0.00;0.00;;;;;;;3.63;51.16;99210.56;5113516;28;20042;-75
2022/01/28 07:44:00;;;;;;;0.73;0.73;;;;;;;3.69;51.10;99215.75;5114601;28;20038;-75
2022/01/28 07:46:26;;;;;;;0.00;0.00;;;;;;;3.75;51.12;99223.81;5113353;28;20475;-75
2022/01/28 07:48:51;;;;;;;1.25;1.17;;;;;;;3.72;51.52;99218.97;5113485;28;20024;-73
2022/01/28 07:51:17;;;;;;;0.00;0.00;;;;;;;3.83;51.49;99229.59;5112761;28;20058;-73
2022/01/28 07:53:43;;;;;;;0.00;0.00;;;;;;;3.92;51.88;99231.91;5113278;28;20024;-74
2022/01/28 07:56:09;;;;;;;0.38;0.38;;;;;;;3.97;51.56;99232.03;5113098;28;20027;-74
2022/01/28 07:58:34;;;;;;;0.00;0.00;;;;;;;4.05;51.95;99223.75;5113325;28;20062;-74
2022/01/28 08:01:00;;;;;;;0.00;0.00;;;;;;;4.18;52.20;99220.09;5114594;28;20023;-74
2022/01/28 08:03:25;;;;;;;0.00;0.00;;;;;;;4.24;51.79;99224.47;5113081;28;20024;-74
2022/01/28 08:05:50;;;;;;;0.15;0.15;;;;;;;4.32;51.46;99223.31;5113101;28;20023;-74
2022/01/28 08:08:19;;;;;;;0.00;0.00;;;;;;;4.36;50.91;99223.66;5114186;28;20140;-74
2022/01/28 08:10:46;;;;;;;;;;;;;;;4.41;50.60;99210.56;5113374;28;20031;-74
2022/01/28 08:13:12;;;;;;;0.00;0.00;;;;;;;4.37;50.49;99198.78;5112871;28;20367;-74
2022/01/28 08:15:39;;;;;;;0.00;0.00;;;;;;;4.50;51.01;99217.09;5114247;28;20020;-74
2022/01/28 08:18:05;;;;;;;0.08;0.08;;;;;;;4.57;50.90;99207.19;5112754;28;20092;-74
2022/01/28 08:20:31;;;;;;;0.00;0.00;;;;;;;4.62;50.93;99206.50;5114537;28;20106;-73
2022/01/28 08:22:59;;;;;;;1.55;1.45;;;;;;;4.71;51.11;99205.09;5112864;28;20030;-73
2022/01/28 08:25:27;;;;;;;0.70;0.70;;;;;;;4.83;50.74;99220.16;5112582;28;20046;-74
2022/01/28 08:27:53;;;;;;;0.00;0.00;;;;;;;4.94;50.08;99216.69;5112855;28;20019;-74
2022/01/28 08:30:22;;;;;;;0.00;0.00;;;;;;;5.01;49.99;99209.41;5112471;28;20073;-75
2022/01/28 08:32:48;;;;;;;0.05;0.05;;;;;;;5.09;49.76;99193.13;5112699;28;20035;-75
2022/01/28 08:35:15;;;;;;;0.00;0.00;;;;;;;5.14;49.57;99189.78;5111605;28;20050;-74
2022/01/28 08:37:41;;;;;;;1.25;0.85;;;;;;;5.04;49.13;99168.34;5113609;28;20096;-74
2022/01/28 08:40:09;;;;;;;0.00;0.00;;;;;;;5.28;49.21;99201.72;5112305;28;20024;-75
2022/01/28 08:42:35;;;;;;;0.15;0.15;;;;;;;5.35;48.63;99200.75;5113512;28;20449;-73
2022/01/28 08:45:00;;;;;;;0.00;0.00;;;;;;;5.40;48.79;99198.19;5112470;28;20049;-75
2022/01/28 08:47:26;;;;;;;3.92;1.35;;;;;;;5.48;48.80;99202.31;5112235;28;20028;-75
2022/01/28 08:49:51;;;;;;;0.00;0.00;;;;;;;5.50;48.78;99203.66;5112146;28;20035;-74
2022/01/28 08:52:17;;;;;;;0.00;0.00;;;;;;;5.54;48.60;99196.03;5111906;28;20020;-74
2022/01/28 08:54:43;;;;;;;0.00;0.00;;;;;;;5.59;48.21;99198.78;5112044;28;20394;-75
2022/01/28 08:57:09;;;;;;;0.00;0.00;;;;;;;5.63;48.61;99194.63;5111916;28;20115;-76
2022/01/28 08:59:34;;;;;;;0.10;0.10;;;;;;;5.65;48.47;99197.84;5112157;28;20478;-74
2022/01/28 09:02:00;;;;;;;0.05;0.05;;;;;;;5.75;49.11;99200.66;5112122;28;20483;-74
2022/01/28 09:04:26;;;;;;;0.00;0.00;;;;;;;5.78;49.00;99196.72;5111727;28;20042;-76
2022/01/28 09:06:51;;;;;;;0.00;0.00;;;;;;;5.86;49.36;99195.50;5112087;28;20506;-76
2022/01/28 09:09:19;;;;;;;0.00;0.00;;;;;;;5.87;49.13;99191.81;5111664;28;20020;-75
2022/01/28 09:11:52;;;;;;;0.00;0.00;;;;;;;6.01;48.79;99192.34;5111971;28;20023;-76
2022/01/28 09:14:20;;;;;;;0.85;0.85;;;;;;;6.04;48.28;99191.84;5111503;28;20031;-74
2022/01/28 09:16:46;;;;;;;0.00;0.00;;;;;;;6.13;47.92;99182.44;5111796;28;20028;-74
2022/01/28 09:19:12;;;;;;;0.00;0.00;;;;;;;6.19;47.59;99175.31;5111460;28;20414;-74
2022/01/28 09:21:37;;;;;;;0.00;0.00;;;;;;;6.26;47.22;99181.28;5111359;28;20081;-75
2022/01/28 09:24:03;;;;;;;0.00;0.00;;;;;;;6.29;47.07;99188.75;5113014;28;20035;-76
2022/01/28 09:26:29;;;;;;;0.00;0.00;;;;;;;6.33;46.55;99176.59;5112896;28;20031;-75
2022/01/28 09:28:55;;;;;;;0.20;0.20;;;;;;;6.47;46.42;99173.59;5094247;28;20453;-75
2022/01/28 09:31:20;;;;;;;0.05;0.05;;;;;;;6.51;46.01;99172.06;5090877;28;20120;-74
2022/01/28 09:33:46;;;;;;;0.00;0.00;;;;;;;6.60;45.76;99164.47;5091006;28;20027;-75
2022/01/28 09:36:11;;;;;;;0.00;0.00;;;;;;;6.66;45.48;99163.47;5090756;28;20093;-75
2022/01/28 09:38:37;;;;;;;0.00;0.00;;;;;;;6.71;44.74;99151.06;5092597;28;20036;-75
2022/01/28 09:41:05;;;;;;;0.00;0.00;;;;;;;6.81;43.77;99160.19;5090720;28;20111;-75
2022/01/28 09:43:31;;;;;;;0.00;0.00;;;;;;;6.89;43.62;99154.44;5090985;28;20463;-75
2022/01/28 09:45:57;;;;;;;0.00;0.00;;;;;;;6.86;43.41;99144.28;5090872;28;20340;-74
2022/01/28 09:48:23;;;;;;;0.00;0.00;;;;;;;6.86;43.19;99128.34;5090635;28;20241;-75
2022/01/28 09:50:50;;;;;;;0.00;0.00;;;;;;;6.85;43.09;99130.22;5090732;28;20059;-76
2022/01/28 09:53:17;;;;;;;0.00;0.00;;;;;;;6.85;43.22;99121.44;5090347;28;20404;-76
2022/01/28 09:55:45;;;;;;;0.00;0.00;;;;;;;6.81;42.90;99107.84;5092328;28;20398;-74
2022/01/28 09:58:11;;;;;;;0.00;0.00;;;;;;;6.85;43.32;99110.81;5090303;28;20070;-75
2022/01/28 10:00:37;;;;;;;0.00;0.00;;;;;;;6.84;43.39;99090.59;5091608;28;20020;-75
2022/01/28 10:03:05;;;;;;;0.00;0.00;;;;;;;6.93;43.25;99096.25;5090482;28;20034;-75
2022/01/28 10:05:33;;;;;;;0.00;0.00;;;;;;;7.02;42.99;99102.75;5092023;28;20404;-75
2022/01/28 10:08:16;;;;;;;0.00;0.00;;;;;;;7.16;43.20;99108.44;5108904;28;20474;-74
2022/01/28 10:10:47;;;;;;;0.30;0.22;;;;;;;7.21;42.43;99097.84;5112072;28;20047;-76
2022/01/28 10:13:17;;;;;;;0.05;0.05;;;;;;;7.31;42.87;99083.84;5110431;28;20529;-75
2022/01/28 10:15:58;;;;;;;0.00;0.00;;;;;;;7.39;42.56;99093.22;5111650;28;20027;-75
2022/01/28 10:18:57;;;;;;;0.00;0.00;;;;;;;7.50;42.55;99081.59;5110298;28;20030;-76
2022/01/28 10:21:29;;;;;;;0.00;0.00;;;;;;;7.57;42.76;99073.38;5097990;28;20028;-75
2022/01/28 10:23:54;;;;;;;0.00;0.00;;;;;;;7.69;42.27;99074.03;5110352;28;20047;-75
2022/01/28 10:26:31;;;;;;;0.00;0.00;;;;;;;7.70;42.41;99078.28;5110122;28;20070;-75
2022/01/28 10:28:57;;;;;;;0.00;0.00;;;;;;;7.67;42.60;99078.81;5110361;28;20024;-75
2022/01/28 10:31:32;;;;;;;0.00;0.00;;;;;;;7.80;42.76;99075.69;5110209;28;20557;-75
2022/01/28 10:34:12;;;;;;;0.10;0.10;;;;;;;7.79;43.18;99073.31;5110321;28;20583;-75
2022/01/28 10:36:38;;;;;;;0.10;0.10;;;;;;;7.79;42.90;99071.44;5111975;28;20031;-76
2022/01/28 10:39:04;;;;;;;0.57;0.57;;;;;;;7.85;41.98;99064.28;5109995;28;20031;-76
2022/01/28 10:41:29;;;;;;;0.00;0.00;;;;;;;7.92;42.25;99058.72;5110256;28;20122;-74
2022/01/28 10:43:57;;;;;;;2.83;1.08;;;;;;;7.92;42.11;99053.38;5111262;28;20024;-75
2022/01/28 10:46:26;;;;;;;0.00;0.00;;;;;;;7.99;42.23;99061.94;5109894;28;20027;-75
2022/01/28 10:48:54;;;;;;;0.05;0.05;;;;;;;8.04;42.46;99066.50;5109906;28;20024;-76
2022/01/28 10:51:21;;;;;;;;;;;;;;;8.14;42.01;99062.03;5110289;28;20173;-75
2022/01/28 10:54:17;;;;;;;0.00;0.00;;;;;;;8.25;41.38;99057.56;5109754;28;19911;-76
2022/01/28 10:56:55;;;;;;;0.70;0.70;;;;;;;8.32;40.44;99050.13;5097450;28;20414;-76
2022/01/28 10:59:26;;;;;;;0.35;0.35;;;;;;;8.40;40.29;99045.34;5107659;28;20043;-76
2022/01/28 11:01:52;;;;;;;0.15;0.15;;;;;;;8.49;39.68;99051.81;5108342;28;20526;-76
2022/01/28 11:04:19;;;;;;;0.00;0.00;;;;;;;8.57;39.17;99061.16;5105217;28;20526;-77
2022/01/28 11:06:47;;;;;;;0.00;0.00;;;;;;;8.62;38.83;99061.19;5089480;28;20549;-76
2022/01/28 11:09:14;;;;;;;0.00;0.00;;;;;;;8.66;38.86;99054.25;5089241;28;20032;-76
2022/01/28 11:11:41;;;;;;;0.60;0.60;;;;;;;8.73;38.74;99046.81;5089624;28;20051;-75
2022/01/28 11:14:07;;;;;;;0.00;0.00;;;;;;;8.78;39.75;99054.03;5089397;28;20070;-76
2022/01/28 11:16:34;;;;;;;0.00;0.00;;;;;;;8.83;40.99;99055.91;5089305;28;20052;-75
2022/01/28 11:19:00;;;;;;;0.52;0.52;;;;;;;8.76;41.45;99064.16;5089447;28;20066;-75
2022/01/28 11:22:07;;;;;;;0.13;0.13;;;;;;;8.80;40.51;99067.88;5089257;28;20107;-76
2022/01/28 11:25:00;;;;;;;0.75;0.43;;;;;;;8.81;40.86;99072.16;5086486;28;20086;-76
2022/01/28 11:27:30;;;;;;;0.00;0.00;;;;;;;8.89;40.74;99060.19;5090401;28;20030;-76
2022/01/28 11:30:25;;;;;;;0.00;0.00;;;;;;;8.93;39.86;99050.56;5088921;28;20059;-75
2022/01/28 11:33:00;;;;;;;0.00;0.00;;;;;;;8.89;39.74;99062.84;5089406;28;20036;-76
2022/01/28 11:35:29;;;;;;;0.22;0.22;;;;;;;8.94;40.11;99070.84;5089125;28;20032;-78
2022/01/28 11:38:01;;;;;;;0.00;0.00;;;;;;;8.94;39.81;99068.19;5089154;28;20032;-75
2022/01/28 11:40:26;;;;;;;0.00;0.00;;;;;;;8.95;40.37;99072.47;5089155;28;20032;-75
2022/01/28 11:43:32;;;;;;;0.00;0.00;;;;;;;8.97;39.67;99068.47;5090378;28;20031;-77
2022/01/28 11:46:11;;;;;;;2.30;1.00;;;;;;;9.00;39.65;99074.34;5090237;28;20115;-75
2022/01/28 11:48:51;;;;;;;0.00;0.00;;;;;;;8.97;39.32;99072.97;5090787;28;20024;-75
2022/01/28 11:51:21;;;;;;;0.00;0.00;;;;;;;8.94;39.63;99058.31;5088907;28;20032;-75
2022/01/28 11:53:55;;;;;;;0.20;0.20;;;;;;;8.99;39.68;99056.72;5088975;28;20051;-76
2022/01/28 11:56:27;;;;;;;0.10;0.10;;;;;;;9.00;38.58;99050.34;5090471;28;20028;-75
2022/01/28 11:59:00;;;;;;;0.15;0.15;;;;;;;9.03;38.95;99061.25;5090268;28;20035;-76
2022/01/28 12:01:49;;;;;;;0.20;0.20;;;;;;;9.11;39.09;99058.06;5088904;28;20021;-75
2022/01/28 12:04:23;;;;;;;;;;;;;;;9.19;39.30;99046.06;5073156;28;20035;-75
2022/01/28 12:06:58;;;;;;;0.00;0.00;;;;;;;9.27;39.34;99047.41;5089061;28;19912;-76
2022/01/28 12:09:23;;;;;;;0.80;0.80;;;;;;;9.28;38.96;99035.66;5090355;28;20068;-75
2022/01/28 12:11:50;;;;;;;0.00;0.00;;;;;;;9.27;39.00;99020.72;5092008;28;20395;-75
2022/01/28 12:14:16;;;;;;;0.00;0.00;;;;;;;9.41;39.48;99028.97;5092257;28;20502;-75
2022/01/28 12:16:45;;;;;;;0.00;0.00;;;;;;;9.45;39.69;99025.50;5092622;28;20111;-76
2022/01/28 12:19:19;;;;;;;0.38;0.38;;;;;;;9.48;39.01;99002.00;5092273;28;20032;-75
2022/01/28 12:22:08;;;;;;;0.00;0.00;;;;;;;9.66;38.72;99022.00;5092446;28;20030;-75
2022/01/28 12:24:37;;;;;;;0.00;0.00;;;;;;;9.68;38.04;99019.84;5093764;28;20028;-76
2022/01/28 12:27:05;;;;;;;0.00;0.00;;;;;;;9.78;38.55;99023.31;5093520;28;20493;-76
2022/01/28 12:29:36;;;;;;;0.00;0.00;;;;;;;9.75;38.75;99018.53;5092269;28;20036;-75
2022/01/28 12:32:03;;;;;;;0.80;0.70;;;;;;;9.83;38.43;99022.50;5092385;28;20032;-76
2022/01/28 12:34:29;;;;;;;0.00;0.00;;;;;;;9.87;38.15;99023.53;5093341;28;20520;-77
2022/01/28 12:36:58;;;;;;;0.00;0.00;;;;;;;9.84;37.87;99005.41;5092245;28;20042;-76
2022/01/28 12:40:01;;;;;;;0.00;0.00;;;;;;;9.98;38.12;99010.97;5091940;28;20066;-76
2022/01/28 12:42:23;;;;;;;0.10;0.10;;;;;;;9.99;38.04;99001.09;5090695;28;20154;-75
2022/01/28 12:44:56;;;;;;;0.20;0.20;;;;;;;10.03;38.09;99002.94;5093407;28;20032;-75
2022/01/28 12:47:24;;;;;;;0.10;0.10;;;;;;;10.06;37.85;99014.97;5093159;28;20085;-76
2022/01/28 12:50:03;;;;;;;0.00;0.00;;;;;;;10.08;37.59;99016.28;5091952;28;20507;-75
2022/01/28 12:52:30;;;;;;;0.00;0.00;;;;;;;10.09;37.62;99004.53;5091787;28;20040;-76
2022/01/28 12:54:56;;;;;;;0.13;0.13;;;;;;;10.16;37.24;99011.44;5091926;28;20101;-76
2022/01/28 12:57:21;;;;;;;0.05;0.05;;;;;;;10.20;37.70;99012.47;5091609;28;20039;-75
2022/01/28 12:59:49;;;;;;;0.00;0.00;;;;;;;10.21;37.99;99006.84;5091710;28;20024;-76
2022/01/28 13:02:16;;;;;;;0.00;0.00;;;;;;;10.25;37.72;99002.59;5111827;28;20081;-75
2022/01/28 13:10:28;;;;;;;0.00;0.00;;;;;;;10.40;36.88;98995.59;5113336;28;20035;-76
2022/01/28 13:13:09;;;;;;;0.32;0.32;;;;;;;10.43;37.71;98986.22;5111934;28;20110;-74
2022/01/28 13:15:36;;;;;;;0.08;0.08;;;;;;;10.50;36.96;98990.19;5111940;28;20027;-74
2022/01/28 13:18:04;;;;;;;0.00;0.00;;;;;;;10.57;37.63;98995.22;5113187;28;20026;-76
2022/01/28 13:20:40;;;;;;;0.00;0.00;;;;;;;10.67;37.38;98984.47;5113239;28;20532;-76
2022/01/28 13:23:08;;;;;;;0.08;0.08;;;;;;;10.81;37.52;98986.50;5111329;28;20027;-75
2022/01/28 13:25:33;;;;;;;0.00;0.00;;;;;;;10.86;37.41;98975.75;5111786;28;20127;-76